Time;durP1;ratioP1;P1;durP2;ratioP2;P2;SDS_P1;SDS_P2;PMS_P1;PMS_P2;Temp;Humidity;BMP_temperature;BMP_pressure;BME280_temperature;BME280_humidity;BME280_pressure;Samples;Min_cycle;Max_cycle;Signal;HPM_P1;HPM_P2
2022/07/15 00:01:04;;;;;;;3.73;1.23;;;18.40;91.70;;;;;;4937605;29;20301;-82
2022/07/15 00:03:31;;;;;;;2.80;1.17;;;18.40;91.80;;;;;;4989067;28;20669;-82
2022/07/15 00:05:58;;;;;;;5.17;1.20;;;18.50;92.30;;;;;;5034194;28;20218;-74
2022/07/15 00:08:27;;;;;;;3.57;1.30;;;18.40;92.20;;;;;;5032649;28;20235;-79
2022/07/15 00:10:54;;;;;;;3.20;1.07;;;18.50;92.30;;;;;;5032473;28;20230;-79
2022/07/15 00:13:21;;;;;;;2.90;1.10;;;18.40;92.20;;;;;;5032038;28;20265;-84
2022/07/15 00:15:48;;;;;;;2.07;1.13;;;18.40;92.10;;;;;;5032582;28;20203;-83
2022/07/15 00:18:15;;;;;;;2.93;1.10;;;18.40;92.30;;;;;;5032305;28;20215;-81
2022/07/15 00:20:42;;;;;;;7.63;1.43;;;18.40;92.50;;;;;;5032499;28;20199;-84
2022/07/15 00:23:09;;;;;;;4.90;1.30;;;18.40;92.80;;;;;;5033318;28;20190;-84
2022/07/15 00:25:36;;;;;;;4.03;1.10;;;18.40;92.80;;;;;;5032868;28;20203;-78
2022/07/15 00:28:05;;;;;;;4.73;1.63;;;18.40;92.90;;;;;;5031756;28;20317;-83
2022/07/15 00:30:35;;;;;;;4.20;1.30;;;18.40;93.00;;;;;;5031947;28;20330;-79
2022/07/15 00:33:03;;;;;;;5.53;1.30;;;18.40;93.30;;;;;;5032089;28;20227;-79
2022/07/15 00:35:31;;;;;;;6.00;1.37;;;18.40;93.50;;;;;;5032165;28;20188;-81
2022/07/15 00:37:58;;;;;;;6.57;1.43;;;18.40;93.80;;;;;;5033329;28;20199;-84
2022/07/15 00:40:25;;;;;;;4.37;1.80;;;18.40;93.90;;;;;;5033327;28;20183;-84
2022/07/15 00:42:52;;;;;;;4.80;1.50;;;18.40;94.20;;;;;;5031819;28;20201;-87
2022/07/15 00:45:22;;;;;;;2.73;1.30;;;18.40;94.50;;;;;;5032074;28;20199;-84
2022/07/15 00:47:55;;;;;;;1.67;1.10;;;18.20;94.60;;;;;;5033083;28;20210;-84
2022/07/15 00:50:24;;;;;;;6.17;1.30;;;18.30;94.80;;;;;;5036820;28;20295;-80
2022/07/15 00:52:58;;;;;;;4.53;1.30;;;18.20;94.70;;;;;;5036359;28;20219;-83
2022/07/15 00:55:25;;;;;;;4.93;1.20;;;18.30;95.00;;;;;;5035875;28;20282;-84
2022/07/15 00:57:58;;;;;;;2.97;1.40;;;18.10;95.20;;;;;;5036053;28;20561;-81
2022/07/15 01:00:25;;;;;;;4.57;1.40;;;18.10;95.60;;;;;;5019135;28;20203;-84
2022/07/15 01:02:53;;;;;;;5.80;1.53;;;18.10;95.90;;;;;;5035910;28;20294;-88
2022/07/15 01:05:21;;;;;;;4.87;1.40;;;18.10;95.90;;;;;;5035974;28;20191;-86
2022/07/15 01:07:49;;;;;;;4.70;1.30;;;18.10;96.40;;;;;;5035595;28;20641;-86
2022/07/15 01:10:18;;;;;;;3.90;1.60;;;18.10;96.30;;;;;;5035769;28;20617;-87
2022/07/15 01:12:47;;;;;;;4.83;1.53;;;18.10;96.30;;;;;;5035814;28;20558;-84
2022/07/15 01:15:15;;;;;;;2.93;1.40;;;18.10;96.50;;;;;;5035631;28;20199;-84
2022/07/15 01:17:44;;;;;;;3.00;1.20;;;18.00;96.70;;;;;;5036111;28;20199;-85
2022/07/15 01:20:12;;;;;;;5.43;1.60;;;18.00;97.00;;;;;;5035504;28;20241;-86
2022/07/15 01:22:40;;;;;;;4.57;1.40;;;18.00;97.00;;;;;;5035469;28;20270;-84
2022/07/15 01:25:07;;;;;;;5.90;1.80;;;18.00;97.60;;;;;;5036870;28;20200;-86
2022/07/15 01:27:34;;;;;;;2.70;1.30;;;18.00;97.30;;;;;;5035353;28;20213;-83
2022/07/15 01:30:02;;;;;;;3.57;1.30;;;17.90;97.30;;;;;;5036463;28;20650;-86
2022/07/15 01:32:29;;;;;;;4.57;1.30;;;18.00;97.70;;;;;;5035020;28;20579;-83
2022/07/15 01:34:56;;;;;;;8.00;1.87;;;18.00;98.00;;;;;;5036563;28;20196;-81
2022/07/15 01:37:23;;;;;;;4.77;1.23;;;17.90;97.70;;;;;;5035179;28;20543;-85
2022/07/15 01:39:49;;;;;;;4.23;1.40;;;17.80;98.10;;;;;;5036557;28;20274;-84
2022/07/15 01:42:17;;;;;;;2.53;1.20;;;17.80;98.10;;;;;;5035082;28;20234;-86
2022/07/15 01:44:44;;;;;;;2.20;1.00;;;17.90;98.20;;;;;;5035227;28;20290;-80
2022/07/15 01:47:11;;;;;;;4.63;1.10;;;17.80;98.40;;;;;;5035317;28;20283;-83
2022/07/15 01:49:37;;;;;;;2.97;1.20;;;17.70;98.60;;;;;;5034981;28;20199;-85
2022/07/15 01:52:08;;;;;;;4.60;1.70;;;17.70;98.90;;;;;;5034565;28;20223;-78
2022/07/15 01:54:36;;;;;;;4.37;1.27;;;17.60;99.20;;;;;;5035263;28;20195;-84
2022/07/15 01:57:03;;;;;;;4.40;1.50;;;17.60;99.50;;;;;;5036016;28;20195;-86
2022/07/15 01:59:30;;;;;;;3.57;1.13;;;17.60;99.60;;;;;;5033451;28;20294;-82
2022/07/15 02:01:57;;;;;;;5.67;1.30;;;17.50;99.70;;;;;;5034802;28;20195;-85
2022/07/15 02:04:25;;;;;;;5.73;1.43;;;17.50;99.60;;;;;;5034695;28;20257;-84
2022/07/15 02:06:53;;;;;;;6.37;1.80;;;17.40;99.90;;;;;;5036504;28;20203;-86
2022/07/15 02:09:20;;;;;;;2.40;1.23;;;17.30;99.90;;;;;;5035099;28;20290;-85
2022/07/15 02:11:47;;;;;;;3.53;1.23;;;17.20;99.90;;;;;;5034498;28;20298;-82
2022/07/15 02:14:14;;;;;;;4.40;1.30;;;17.10;99.90;;;;;;5034566;28;20199;-86
2022/07/15 02:16:41;;;;;;;7.63;1.30;;;17.10;99.90;;;;;;5034626;28;20198;-82
2022/07/15 02:19:08;;;;;;;4.63;1.23;;;17.10;99.90;;;;;;5034763;28;20249;-85
2022/07/15 02:21:36;;;;;;;4.47;1.27;;;17.00;99.90;;;;;;5034494;28;20200;-86
2022/07/15 02:24:03;;;;;;;2.47;1.20;;;16.90;99.90;;;;;;5034549;28;20203;-82
2022/07/15 02:26:30;;;;;;;4.07;1.10;;;16.80;99.90;;;;;;5034668;28;20207;-81
2022/07/15 02:28:57;;;;;;;2.73;1.20;;;16.80;99.90;;;;;;5033837;28;20302;-84
2022/07/15 02:31:24;;;;;;;3.47;1.20;;;16.80;99.90;;;;;;5035419;28;20187;-84
2022/07/15 02:33:52;;;;;;;2.03;1.07;;;16.70;99.90;;;;;;5034227;28;20668;-78
2022/07/15 02:36:19;;;;;;;5.13;1.30;;;16.70;99.90;;;;;;5034290;28;20637;-75
2022/07/15 02:38:46;;;;;;;4.83;1.63;;;16.70;99.90;;;;;;5035279;28;20210;-83
2022/07/15 02:41:13;;;;;;;2.50;1.03;;;16.60;99.90;;;;;;5034327;28;20202;-83
2022/07/15 02:43:41;;;;;;;3.70;0.97;;;16.50;99.90;;;;;;5034013;28;20199;-81
2022/07/15 02:46:09;;;;;;;3.07;1.27;;;16.50;99.90;;;;;;5035285;28;20202;-83
2022/07/15 02:48:37;;;;;;;3.93;1.23;;;16.50;99.90;;;;;;5033868;28;20196;-82
2022/07/15 02:51:05;;;;;;;2.97;1.10;;;16.50;99.90;;;;;;5034128;28;20295;-84
2022/07/15 02:53:32;;;;;;;3.77;1.23;;;16.40;99.90;;;;;;5033660;28;20633;-87
2022/07/15 02:55:59;;;;;;;3.77;1.10;;;16.30;99.90;;;;;;5034172;28;20290;-85
2022/07/15 02:58:29;;;;;;;2.90;1.03;;;16.20;99.90;;;;;;5034614;28;20690;-78
2022/07/15 03:00:57;;;;;;;5.07;1.20;;;16.20;99.90;;;;;;5034784;28;20195;-81
2022/07/15 03:03:24;;;;;;;3.97;1.20;;;16.10;99.90;;;;;;5033396;28;20249;-75
2022/07/15 03:05:51;;;;;;;2.50;1.20;;;16.20;99.90;;;;;;5033538;28;20642;-79
2022/07/15 03:08:18;;;;;;;4.73;1.20;;;16.20;99.90;;;;;;5033598;28;20196;-83
2022/07/15 03:10:45;;;;;;;3.37;1.13;;;16.20;99.90;;;;;;5033435;28;20202;-83
2022/07/15 03:13:12;;;;;;;2.17;1.00;;;16.20;99.90;;;;;;5034579;28;20216;-83
2022/07/15 03:15:38;;;;;;;2.70;1.10;;;16.20;99.90;;;;;;5034806;28;20287;-85
2022/07/15 03:18:05;;;;;;;1.83;1.00;;;16.10;99.90;;;;;;5034982;28;20226;-85
2022/07/15 03:20:32;;;;;;;6.00;1.13;;;16.20;99.90;;;;;;5033852;28;20210;-86
2022/07/15 03:22:59;;;;;;;4.40;1.00;;;16.10;99.90;;;;;;5034499;28;20219;-83
2022/07/15 03:25:26;;;;;;;4.17;1.13;;;16.10;99.90;;;;;;5034790;28;20196;-84
2022/07/15 03:27:53;;;;;;;5.87;1.80;;;16.10;99.90;;;;;;5033254;28;20693;-83
2022/07/15 03:30:22;;;;;;;4.47;1.70;;;16.10;99.90;;;;;;5032992;28;20235;-85
2022/07/15 03:32:49;;;;;;;5.43;1.73;;;16.10;99.90;;;;;;5032680;28;20215;-85
2022/07/15 03:35:16;;;;;;;6.07;1.60;;;16.10;99.90;;;;;;5033016;28;20199;-84
2022/07/15 03:37:43;;;;;;;6.47;1.40;;;16.00;99.90;;;;;;5033342;28;20592;-85
2022/07/15 03:40:10;;;;;;;4.77;1.40;;;16.10;99.90;;;;;;5034158;28;20550;-82
2022/07/15 03:42:37;;;;;;;4.73;1.30;;;16.10;99.90;;;;;;5032741;28;20221;-83
2022/07/15 03:45:05;;;;;;;5.37;1.50;;;16.10;99.90;;;;;;5033429;28;20697;-82
2022/07/15 03:47:32;;;;;;;5.77;1.53;;;16.10;99.90;;;;;;5034365;28;20632;-86
2022/07/15 03:49:59;;;;;;;8.93;2.17;;;16.20;99.90;;;;;;5032944;28;20580;-83
2022/07/15 03:52:26;;;;;;;5.60;1.90;;;16.30;99.90;;;;;;5034075;28;20711;-80
2022/07/15 03:54:53;;;;;;;3.03;1.30;;;16.40;99.90;;;;;;5033383;28;20213;-76
2022/07/15 03:57:20;;;;;;;4.03;1.30;;;16.40;99.90;;;;;;5032531;28;20231;-81
2022/07/15 03:59:47;;;;;;;4.37;1.33;;;16.50;99.90;;;;;;5033786;28;20278;-82
2022/07/15 04:02:14;;;;;;;5.20;1.50;;;16.50;99.90;;;;;;5032444;28;20200;-74
2022/07/15 04:04:41;;;;;;;6.30;1.33;;;16.60;99.90;;;;;;5033990;28;20195;-86
2022/07/15 04:07:07;;;;;;;7.80;1.57;;;16.60;99.90;;;;;;5033880;28;20198;-85
2022/07/15 04:09:34;;;;;;;3.90;1.30;;;16.60;99.90;;;;;;5032900;28;20290;-80
2022/07/15 04:12:01;;;;;;;5.23;1.50;;;16.60;99.90;;;;;;5033716;28;20198;-83
2022/07/15 04:14:34;;;;;;;4.27;1.60;;;16.50;99.90;;;;;;5032720;28;20601;-86
2022/07/15 04:17:02;;;;;;;5.40;1.67;;;16.50;99.90;;;;;;5034171;28;20196;-85
2022/07/15 04:19:31;;;;;;;5.63;1.53;;;16.40;99.90;;;;;;5032634;28;20207;-88
2022/07/15 04:21:59;;;;;;;3.17;1.37;;;16.50;99.90;;;;;;5032101;28;20234;-85
2022/07/15 04:24:26;;;;;;;5.13;1.33;;;16.60;99.90;;;;;;5032216;28;20200;-78
2022/07/15 04:26:53;;;;;;;10.33;1.90;;;16.70;99.90;;;;;;5032264;28;20213;-81
2022/07/15 04:29:20;;;;;;;3.80;1.57;;;16.70;99.90;;;;;;5031987;28;20322;-81
2022/07/15 04:31:46;;;;;;;4.73;1.37;;;16.70;99.90;;;;;;5032203;28;20221;-82
2022/07/15 04:34:13;;;;;;;5.67;1.70;;;16.80;99.90;;;;;;5032266;28;20227;-83
2022/07/15 04:36:41;;;;;;;4.57;1.43;;;16.80;99.90;;;;;;5041376;28;20222;-88
2022/07/15 04:39:07;;;;;;;6.23;1.60;;;16.80;99.90;;;;;;5032840;28;20717;-89
2022/07/15 04:41:34;;;;;;;5.93;1.70;;;16.80;99.90;;;;;;5032477;28;20199;-83
2022/07/15 04:44:01;;;;;;;7.17;1.60;;;16.90;99.90;;;;;;5033351;28;20283;-83
2022/07/15 04:46:28;;;;;;;8.23;1.70;;;16.90;99.90;;;;;;5031860;28;20282;-82
2022/07/15 04:51:41;;;;;;;2.20;0.93;;;16.90;99.90;;;;;;5032563;28;20199;-80
2022/07/15 04:54:07;;;;;;;4.23;1.03;;;16.90;99.90;;;;;;5031911;28;20250;-86
2022/07/15 04:56:34;;;;;;;4.40;1.10;;;17.00;99.90;;;;;;5031921;28;20203;-88
2022/07/15 04:59:02;;;;;;;2.87;1.20;;;17.00;99.90;;;;;;5032802;28;20656;-84
2022/07/15 05:01:29;;;;;;;4.07;1.07;;;17.10;99.90;;;;;;5031505;28;20203;-87
2022/07/15 05:03:57;;;;;;;4.63;0.90;;;17.10;99.90;;;;;;5033018;28;20191;-83
2022/07/15 05:06:24;;;;;;;3.40;1.10;;;17.10;99.90;;;;;;5032017;28;20203;-83
2022/07/15 05:08:51;;;;;;;4.67;1.30;;;17.20;99.90;;;;;;5031729;28;20205;-82
2022/07/15 05:11:18;;;;;;;10.23;1.43;;;17.20;99.90;;;;;;5031872;28;20255;-81
2022/07/15 05:13:46;;;;;;;6.87;1.20;;;17.20;99.90;;;;;;5031537;28;20223;-83
2022/07/15 05:16:13;;;;;;;6.00;1.10;;;17.30;99.90;;;;;;5033154;28;20238;-74
2022/07/15 05:18:40;;;;;;;5.07;1.10;;;17.30;99.90;;;;;;5031782;28;20199;-83
2022/07/15 05:21:07;;;;;;;2.97;0.90;;;17.30;99.90;;;;;;5032005;28;20207;-84
2022/07/15 05:23:34;;;;;;;6.67;1.00;;;17.40;99.90;;;;;;5031518;28;20303;-85
2022/07/15 05:26:01;;;;;;;3.87;1.00;;;17.60;99.90;;;;;;5032947;28;20266;-81
2022/07/15 05:28:28;;;;;;;2.60;0.80;;;17.60;99.90;;;;;;5031367;28;20310;-82
2022/07/15 05:30:55;;;;;;;4.07;0.90;;;17.70;99.90;;;;;;5031472;28;20527;-81
2022/07/15 05:33:22;;;;;;;5.17;0.90;;;17.90;99.90;;;;;;5033063;28;20313;-82
2022/07/15 05:35:49;;;;;;;5.27;1.10;;;18.00;99.90;;;;;;5035275;28;20208;-84
2022/07/15 05:38:20;;;;;;;4.90;1.00;;;18.10;99.90;;;;;;5036349;28;20210;-81
2022/07/15 05:40:47;;;;;;;7.33;1.03;;;18.10;99.90;;;;;;5035320;28;20188;-85
2022/07/15 05:43:14;;;;;;;3.90;1.00;;;18.20;99.90;;;;;;5035197;28;20231;-82
2022/07/15 05:45:42;;;;;;;4.07;0.80;;;18.30;99.90;;;;;;5035032;28;20200;-85
2022/07/15 05:48:09;;;;;;;6.63;1.10;;;18.30;99.90;;;;;;5035224;28;20191;-82
2022/07/15 05:50:39;;;;;;;1.60;0.83;;;18.30;99.90;;;;;;5034902;28;20206;-81
2022/07/15 05:53:06;;;;;;;2.33;0.80;;;18.40;99.90;;;;;;5034816;28;20219;-83
2022/07/15 05:55:33;;;;;;;4.63;1.00;;;18.30;99.90;;;;;;5034933;28;20203;-83
2022/07/15 05:58:00;;;;;;;3.80;0.83;;;18.20;99.90;;;;;;5034506;28;20211;-83
2022/07/15 06:00:27;;;;;;;3.53;1.10;;;18.20;99.90;;;;;;5036093;28;20218;-84
2022/07/15 06:02:54;;;;;;;5.00;0.97;;;18.30;99.90;;;;;;5034707;28;20257;-83
2022/07/15 06:05:21;;;;;;;6.80;1.10;;;18.40;99.90;;;;;;5034988;28;20204;-83
2022/07/15 06:07:48;;;;;;;4.50;0.80;;;18.50;99.90;;;;;;5034710;28;20246;-83
2022/07/15 06:10:15;;;;;;;3.57;0.90;;;18.60;99.90;;;;;;5035771;28;20620;-84
2022/07/15 06:12:42;;;;;;;2.90;0.90;;;18.70;99.90;;;;;;5033988;28;20207;-82
2022/07/15 06:15:09;;;;;;;3.67;1.17;;;18.80;99.90;;;;;;5034464;28;20223;-85
2022/07/15 06:17:36;;;;;;;4.63;0.93;;;18.90;99.90;;;;;;5034462;28;20282;-83
2022/07/15 06:20:05;;;;;;;1.90;0.80;;;19.00;99.90;;;;;;5034411;28;20239;-83
2022/07/15 06:22:38;;;;;;;1.90;0.70;;;19.00;99.90;;;;;;5034365;28;20199;-82
2022/07/15 06:25:05;;;;;;;2.30;0.90;;;19.00;99.90;;;;;;5034418;28;20191;-84
2022/07/15 06:27:32;;;;;;;3.73;1.00;;;18.70;99.90;;;;;;5034057;28;20283;-85
2022/07/15 06:30:00;;;;;;;3.70;0.97;;;18.40;99.90;;;;;;5034040;28;20253;-84
2022/07/15 06:32:26;;;;;;;3.70;0.97;;;18.20;99.90;;;;;;5034277;28;20230;-85
2022/07/15 06:34:54;;;;;;;2.63;0.80;;;18.10;99.90;;;;;;5034203;28;20577;-76
2022/07/15 06:37:21;;;;;;;2.20;0.70;;;18.20;99.90;;;;;;5034057;28;20637;-79
2022/07/15 06:39:48;;;;;;;6.87;1.30;;;18.30;99.90;;;;;;5034348;28;20298;-84
2022/07/15 06:42:15;;;;;;;4.00;1.27;;;18.50;99.90;;;;;;5034175;28;20200;-84
2022/07/15 06:44:43;;;;;;;3.90;1.37;;;18.40;99.90;;;;;;5034452;28;20212;-86
2022/07/15 06:47:09;;;;;;;2.80;1.20;;;18.30;99.90;;;;;;5033445;28;20200;-83
2022/07/15 06:49:37;;;;;;;10.57;1.93;;;18.30;99.90;;;;;;5034183;28;20207;-84
2022/07/15 06:52:05;;;;;;;5.33;1.43;;;18.40;99.90;;;;;;5034001;28;20624;-83
2022/07/15 06:54:31;;;;;;;5.97;1.57;;;18.50;99.90;;;;;;5033400;28;20573;-80
2022/07/15 06:56:59;;;;;;;3.77;1.30;;;18.50;99.90;;;;;;5034134;28;20203;-84
2022/07/15 06:59:26;;;;;;;5.40;1.80;;;18.60;99.90;;;;;;5034802;28;20270;-83
2022/07/15 07:01:55;;;;;;;4.00;1.30;;;18.50;99.90;;;;;;5033433;28;20294;-84
2022/07/15 07:04:22;;;;;;;3.47;1.30;;;18.60;99.90;;;;;;5034820;28;20199;-83
2022/07/15 07:06:49;;;;;;;2.83;1.40;;;18.60;99.90;;;;;;5034939;28;20261;-79
2022/07/15 07:09:16;;;;;;;2.50;1.30;;;18.60;99.90;;;;;;5034952;28;20640;-81
2022/07/15 07:11:43;;;;;;;2.90;1.30;;;18.80;99.90;;;;;;5033390;28;20203;-84
2022/07/15 07:14:11;;;;;;;2.10;1.23;;;18.70;99.90;;;;;;5034515;28;20302;-86
2022/07/15 07:16:42;;;;;;;5.00;1.17;;;18.80;99.90;;;;;;5017149;28;20217;-82
2022/07/15 07:19:09;;;;;;;4.67;1.20;;;18.80;99.90;;;;;;5033703;28;20196;-85
2022/07/15 07:21:36;;;;;;;2.87;1.50;;;18.80;99.90;;;;;;5034217;28;20204;-87
2022/07/15 07:24:04;;;;;;;4.13;1.17;;;19.00;99.90;;;;;;5033514;28;20210;-84
2022/07/15 07:26:31;;;;;;;5.07;1.30;;;19.10;99.90;;;;;;5033128;28;20223;-84
2022/07/15 07:28:58;;;;;;;7.37;1.77;;;19.10;99.90;;;;;;5032842;28;20565;-83
2022/07/15 07:31:27;;;;;;;5.87;1.50;;;19.10;99.90;;;;;;5033514;28;20209;-79
2022/07/15 07:33:56;;;;;;;4.83;1.40;;;19.00;99.90;;;;;;5032866;28;20242;-83
2022/07/15 07:36:24;;;;;;;4.70;1.63;;;19.00;99.90;;;;;;5033287;28;20206;-75
2022/07/15 07:38:52;;;;;;;4.73;1.27;;;19.10;99.90;;;;;;5033021;28;20203;-75
2022/07/15 07:41:19;;;;;;;4.37;1.30;;;19.00;99.90;;;;;;5016818;28;20212;-80
2022/07/15 07:43:46;;;;;;;4.53;1.40;;;19.20;99.90;;;;;;5032890;28;20200;-84
2022/07/15 07:46:14;;;;;;;3.83;1.20;;;19.30;99.90;;;;;;5032671;28;20210;-76
2022/07/15 07:48:41;;;;;;;2.90;1.40;;;19.40;99.90;;;;;;5033025;28;20633;-83
2022/07/15 07:51:08;;;;;;;5.33;1.50;;;19.50;99.90;;;;;;5033374;28;20208;-74
2022/07/15 07:53:35;;;;;;;3.97;1.30;;;19.60;99.90;;;;;;5034013;28;20221;-79
2022/07/15 07:56:03;;;;;;;4.77;1.37;;;19.70;99.90;;;;;;5034749;28;20196;-89
2022/07/15 07:58:30;;;;;;;4.13;1.50;;;20.00;99.90;;;;;;5032408;28;20199;-84
2022/07/15 08:00:57;;;;;;;2.37;1.30;;;19.90;99.90;;;;;;5033728;28;20191;-80
2022/07/15 08:03:24;;;;;;;3.23;1.30;;;19.70;99.90;;;;;;5032490;28;20257;-75
2022/07/15 08:05:53;;;;;;;4.93;1.50;;;19.60;99.90;;;;;;5032692;28;20223;-74
2022/07/15 08:08:21;;;;;;;3.37;1.37;;;19.50;99.90;;;;;;5032408;28;20601;-76
2022/07/15 08:10:51;;;;;;;3.17;1.50;;;19.30;99.90;;;;;;5032238;28;20306;-75
2022/07/15 08:13:21;;;;;;;2.87;1.50;;;19.20;99.90;;;;;;5033590;28;20188;-92
2022/07/15 08:15:53;;;;;;;6.03;1.80;;;19.10;99.90;;;;;;5032797;28;20234;-81
2022/07/15 08:18:30;;;;;;;4.13;1.60;;;19.00;99.90;;;;;;5032904;28;20199;-82
2022/07/15 08:20:58;;;;;;;4.20;1.80;;;19.00;99.90;;;;;;5033275;28;20212;-85
2022/07/15 08:23:25;;;;;;;3.50;1.70;;;19.10;99.90;;;;;;5033518;28;20199;-81
2022/07/15 08:25:53;;;;;;;5.37;1.67;;;19.20;99.90;;;;;;5031967;28;20283;-80
2022/07/15 08:28:21;;;;;;;4.37;1.60;;;19.80;99.90;;;;;;5031742;28;20780;-80
2022/07/15 08:31:08;;;;;;;3.37;1.40;;;20.20;99.90;;;;;;5033281;28;20200;-85
2022/07/15 08:33:35;;;;;;;3.97;1.60;;;20.90;99.90;;;;;;5032959;28;20230;-88
2022/07/15 08:36:02;;;;;;;3.77;1.50;;;20.70;99.90;;;;;;5034108;28;20241;-87
2022/07/15 08:38:30;;;;;;;3.77;1.70;;;20.80;99.90;;;;;;5032591;28;20625;-76
2022/07/15 08:40:57;;;;;;;4.63;1.40;;;20.50;99.90;;;;;;5032105;28;20200;-79
2022/07/15 08:43:24;;;;;;;4.23;1.40;;;20.20;99.90;;;;;;5032125;28;20290;-79
2022/07/15 08:45:52;;;;;;;5.20;1.30;;;20.10;99.90;;;;;;5032146;28;20203;-78
2022/07/15 08:48:26;;;;;;;2.27;1.00;;;20.80;99.90;;;;;;5032979;28;20641;-83
2022/07/15 08:50:55;;;;;;;3.67;1.07;;;21.00;99.00;;;;;;5032404;28;20659;-83
2022/07/15 08:53:22;;;;;;;3.03;0.90;;;21.80;98.40;;;;;;5031980;28;20205;-80
2022/07/15 08:55:49;;;;;;;2.03;1.00;;;22.30;95.20;;;;;;5031877;28;20283;-81
2022/07/15 08:58:16;;;;;;;4.40;1.10;;;23.20;94.90;;;;;;5031909;28;20226;-77
2022/07/15 09:01:03;;;;;;;2.45;0.80;;;23.00;92.50;;;;;;5032662;28;20561;-87
2022/07/15 09:03:30;;;;;;;1.63;0.77;;;22.60;89.90;;;;;;5032034;28;20195;-80
2022/07/15 09:05:57;;;;;;;2.28;0.85;;;21.80;90.60;;;;;;5031873;28;20196;-79
2022/07/15 09:08:25;;;;;;;3.05;1.00;;;22.40;91.30;;;;;;5033157;28;20202;-84
2022/07/15 09:10:57;;;;;;;2.42;0.93;;;22.70;90.90;;;;;;5016119;28;20231;-81
2022/07/15 09:13:38;;;;;;;3.63;0.90;;;23.00;89.90;;;;;;5048722;28;20196;-85
2022/07/15 09:16:08;;;;;;;2.30;0.82;;;22.90;89.30;;;;;;5015778;28;20212;-82
2022/07/15 09:18:38;;;;;;;2.83;0.90;;;22.50;89.30;;;;;;5017161;28;20618;-77
2022/07/15 09:21:17;;;;;;;2.53;0.80;;;22.00;91.00;;;;;;5017009;28;20621;-84
2022/07/15 09:23:45;;;;;;;2.65;0.88;;;22.20;91.50;;;;;;5015986;28;20222;-78
2022/07/15 09:26:22;;;;;;;2.28;0.73;;;22.40;91.00;;;;;;5035164;28;20294;-79
2022/07/15 09:28:50;;;;;;;2.83;0.95;;;23.20;88.30;;;;;;5034640;28;20739;-79
2022/07/15 09:34:24;;;;;;;6.47;1.00;;;23.60;86.30;;;;;;5035031;28;20233;-77
2022/07/15 09:36:57;;;;;;;1.63;1.00;;;23.10;85.70;;;;;;5035092;28;20733;-75
2022/07/15 09:39:25;;;;;;;2.75;0.80;;;23.00;85.40;;;;;;5034662;28;20294;-84
2022/07/15 09:41:52;;;;;;;1.33;0.75;;;22.70;84.90;;;;;;5036048;28;20203;-86
2022/07/15 09:44:29;;;;;;;6.03;0.80;;;22.50;83.30;;;;;;5035725;28;20187;-83
2022/07/15 09:46:59;;;;;;;4.68;0.90;;;21.80;83.80;;;;;;5034881;28;20329;-90
2022/07/15 09:49:26;;;;;;;2.20;0.90;;;21.30;86.20;;;;;;5035866;28;20195;-84
2022/07/15 09:51:59;;;;;;;1.30;0.80;;;21.20;88.40;;;;;;5035103;28;20199;-85
2022/07/15 09:54:30;;;;;;;5.10;1.10;;;21.40;89.20;;;;;;5036007;28;20231;-81
2022/07/15 09:57:00;;;;;;;1.90;0.90;;;22.00;88.50;;;;;;5035772;28;20195;-88
2022/07/15 09:59:29;;;;;;;3.70;0.90;;;22.50;85.50;;;;;;5035800;28;20562;-89
2022/07/15 10:01:56;;;;;;;2.33;0.63;;;23.00;84.70;;;;;;5036100;28;20188;-84
2022/07/15 10:04:26;;;;;;;3.17;0.70;;;22.80;83.20;;;;;;5035260;28;20204;-81
2022/07/15 10:06:55;;;;;;;1.45;0.75;;;22.00;82.50;;;;;;5034901;28;20231;-82
2022/07/15 10:09:45;;;;;;;2.42;0.70;;;21.90;84.10;;;;;;5035736;28;20282;-82
2022/07/15 10:12:14;;;;;;;3.00;0.80;;;22.80;83.60;;;;;;5034347;28;20200;-78
2022/07/15 10:14:56;;;;;;;3.92;0.95;;;23.10;80.00;;;;;;5034295;28;20233;-74
2022/07/15 10:17:54;;;;;;;2.13;0.87;;;22.40;81.00;;;;;;5036314;28;20226;-80
2022/07/15 10:20:54;;;;;;;2.20;0.80;;;22.20;81.40;;;;;;5033265;28;20196;-77
2022/07/15 10:23:39;;;;;;;1.93;0.90;;;22.10;80.80;;;;;;4939268;29;20293;-77
2022/07/15 10:26:20;;;;;;;3.35;0.90;;;22.70;80.30;;;;;;4938632;29;20815;-80
2022/07/15 10:28:58;;;;;;;3.53;0.75;;;22.60;77.50;;;;;;4939996;29;20723;-91
2022/07/15 10:31:30;;;;;;;2.15;0.70;;;23.00;78.70;;;;;;4955310;29;20549;-87
2022/07/15 10:34:03;;;;;;;5.32;0.70;;;23.10;77.80;;;;;;4955584;29;20226;-86
2022/07/15 10:36:45;;;;;;;2.53;0.80;;;23.20;77.10;;;;;;4938253;29;20891;-74
2022/07/15 10:39:18;;;;;;;3.83;0.77;;;22.70;79.40;;;;;;4955001;29;20574;-79
2022/07/15 10:41:58;;;;;;;2.33;0.60;;;23.40;81.30;;;;;;4938628;29;20807;-85
2022/07/15 10:44:27;;;;;;;3.97;0.77;;;24.40;78.30;;;;;;4939095;29;20674;-83
2022/07/15 10:47:13;;;;;;;3.08;0.68;;;24.50;73.50;;;;;;4955313;29;20604;-87
2022/07/15 10:49:42;;;;;;;1.50;0.70;;;23.80;74.00;;;;;;4954889;29;20301;-86
2022/07/15 10:52:16;;;;;;;5.50;1.00;;;22.80;74.30;;;;;;4938377;29;20878;-82
2022/07/15 10:54:59;;;;;;;3.92;0.70;;;22.60;76.50;;;;;;4938648;29;20675;-82
2022/07/15 10:57:41;;;;;;;3.37;0.70;;;22.40;76.90;;;;;;4955005;29;20194;-91
2022/07/15 11:00:23;;;;;;;3.60;0.90;;;22.20;77.60;;;;;;4977307;28;20463;-82
2022/07/15 11:03:09;;;;;;;5.13;0.73;;;22.30;77.30;;;;;;5033477;28;20230;-83
2022/07/15 11:05:51;;;;;;;1.80;0.60;;;21.80;78.50;;;;;;5034688;28;20306;-90
2022/07/15 11:08:33;;;;;;;3.38;0.65;;;22.20;84.10;;;;;;5033558;28;20202;-84
2022/07/15 11:11:16;;;;;;;4.88;1.05;;;23.30;79.10;;;;;;5033658;28;20469;-83
2022/07/15 11:13:48;;;;;;;3.53;0.90;;;23.40;77.30;;;;;;5033385;28;20439;-85
2022/07/15 11:16:18;;;;;;;3.30;0.80;;;24.10;74.40;;;;;;5033332;28;20251;-86
2022/07/15 11:18:57;;;;;;;2.67;0.70;;;23.50;74.80;;;;;;5033435;28;20196;-78
2022/07/15 11:21:25;;;;;;;3.22;0.80;;;23.10;75.60;;;;;;5015459;28;20470;-82
2022/07/15 11:23:56;;;;;;;2.78;0.88;;;22.30;75.10;;;;;;5033483;28;20645;-84
2022/07/15 11:26:43;;;;;;;2.72;0.90;;;22.20;77.50;;;;;;5034360;28;20545;-66
2022/07/15 11:29:10;;;;;;;3.90;1.00;;;22.30;79.30;;;;;;5032817;28;20301;-76
2022/07/15 11:31:42;;;;;;;2.80;0.73;;;21.90;79.20;;;;;;5029565;28;20261;-73
2022/07/15 11:34:10;;;;;;;2.47;0.77;;;21.70;85.90;;;;;;5032201;28;20202;-73
2022/07/15 11:36:37;;;;;;;3.73;0.80;;;21.40;86.30;;;;;;5032814;28;20239;-78
2022/07/15 11:39:04;;;;;;;1.97;0.80;;;21.60;84.70;;;;;;5032725;28;20196;-73
2022/07/15 11:44:30;;;;;;;4.32;1.00;;;22.80;84.80;;;;;;5033698;28;20184;-71
2022/07/15 11:46:58;;;;;;;2.67;0.70;;;23.80;80.30;;;;;;5032234;28;20207;-70
2022/07/15 11:49:33;;;;;;;5.15;0.70;;;23.90;77.60;;;;;;5033655;28;20191;-75
2022/07/15 11:52:02;;;;;;;3.75;0.90;;;23.70;78.70;;;;;;5033342;28;20790;-74
2022/07/15 11:54:30;;;;;;;3.42;0.80;;;24.00;82.20;;;;;;5032035;28;20788;-73
2022/07/15 11:57:03;;;;;;;1.63;0.90;;;24.30;76.60;;;;;;5032494;28;20660;-76
2022/07/15 11:59:30;;;;;;;3.47;0.70;;;24.50;75.20;;;;;;5032053;28;20203;-75
2022/07/15 12:02:06;;;;;;;3.00;0.60;;;25.30;81.30;;;;;;5032122;28;20751;-76
2022/07/15 12:04:34;;;;;;;2.85;0.70;;;26.10;73.00;;;;;;5034339;28;20194;-74
2022/07/15 12:07:15;;;;;;;2.08;0.70;;;25.80;70.60;;;;;;5031720;28;20302;-75
2022/07/15 12:09:46;;;;;;;3.03;0.70;;;26.40;69.60;;;;;;5032521;28;20208;-75
2022/07/15 12:12:15;;;;;;;4.13;0.70;;;25.70;67.80;;;;;;5032594;28;20230;-76
2022/07/15 12:14:46;;;;;;;1.88;0.80;;;24.40;67.90;;;;;;5032398;28;20212;-76
2022/07/15 12:17:14;;;;;;;4.57;0.80;;;23.60;71.90;;;;;;5033710;28;20598;-75
2022/07/15 12:20:00;;;;;;;3.47;0.80;;;22.70;75.10;;;;;;5032514;28;20265;-75
2022/07/15 12:22:28;;;;;;;2.13;0.90;;;22.30;74.60;;;;;;5030463;28;20290;-75
2022/07/15 12:24:55;;;;;;;3.55;0.80;;;22.60;76.30;;;;;;5032071;28;20302;-75
2022/07/15 12:27:35;;;;;;;3.07;1.00;;;23.10;75.30;;;;;;5031771;28;20291;-71
2022/07/15 12:30:08;;;;;;;3.40;0.80;;;22.90;73.60;;;;;;5031832;28;20497;-70
2022/07/15 12:32:37;;;;;;;1.77;0.70;;;23.00;72.70;;;;;;5031979;28;20206;-82
2022/07/15 12:35:06;;;;;;;4.55;1.00;;;23.60;78.40;;;;;;5032933;28;20249;-81
2022/07/15 12:37:33;;;;;;;2.05;0.65;;;24.20;75.20;;;;;;5032238;28;20192;-72
2022/07/15 12:40:05;;;;;;;2.85;0.85;;;24.40;69.50;;;;;;5031808;28;20290;-76
2022/07/15 12:42:49;;;;;;;4.38;0.80;;;24.40;70.10;;;;;;5032111;28;20206;-82
2022/07/15 12:45:29;;;;;;;3.15;0.82;;;23.90;72.50;;;;;;5031776;28;20427;-81
2022/07/15 12:48:08;;;;;;;1.25;0.70;;;23.30;70.00;;;;;;5031877;28;20361;-81
2022/07/15 12:50:48;;;;;;;1.30;0.68;;;23.60;69.20;;;;;;5033051;28;20188;-81
2022/07/15 12:53:26;;;;;;;3.53;0.80;;;24.90;71.80;;;;;;5031465;28;20249;-76
2022/07/15 12:55:59;;;;;;;1.92;0.70;;;24.90;67.40;;;;;;5031714;28;20298;-72
2022/07/15 12:58:28;;;;;;;1.38;0.70;;;25.20;70.70;;;;;;5033133;28;20192;-78
2022/07/15 13:01:09;;;;;;;2.47;0.60;;;24.80;66.40;;;;;;5032859;28;20195;-79
2022/07/15 13:03:37;;;;;;;2.17;0.80;;;24.80;69.20;;;;;;5032843;28;20187;-78
2022/07/15 13:06:04;;;;;;;2.00;0.80;;;24.80;64.50;;;;;;5032921;28;20623;-76